Terminal Aerodrome Forecast
Issued by NWS Tampa Bay Area, FL

Home | Current Version | Previous Version | Text Only | Print | Product List | Glossary On
Versions: 1 2 3 4 5 6 7 8 9 10 11 12 13 14 15 16 17 18
904
FTUS42 KTBW 290634 AAA
TAFSRQ
TAF AMD
KSRQ 290634Z 2907/3006 VRB03KT P6SM VCSH SCT050 BKN250
      TEMPO 2907/2910 3SM SHRA BKN025
     FM291100 VRB03KT P6SM SCT250
     FM291400 12004KT P6SM SCT030 SCT250
     FM291800 26008KT P6SM VCTS SCT035CB BKN250=

USA.gov is the U.S. government's official web portal to all federal, state and local government web resources and services.